Time;durP1;ratioP1;P1;durP2;ratioP2;P2;SDS_P1;SDS_P2;PMS_P1;PMS_P2;Temp;Humidity;BMP_temperature;BMP_pressure;BME280_temperature;BME280_humidity;BME280_pressure;Samples;Min_cycle;Max_cycle;Signal;HPM_P1;HPM_P2
2021/12/12 00:01:19;;;;;;;7.43;6.83;;;;;;;3.09;85.75;96111.03;4401824;32;20325;-58
2021/12/12 00:03:51;;;;;;;7.30;6.67;;;;;;;3.05;85.93;96114.31;4379738;32;20271;-59
2021/12/12 00:06:22;;;;;;;7.33;6.80;;;;;;;3.21;85.99;96112.84;4405899;32;20291;-58
2021/12/12 00:08:56;;;;;;;6.87;6.30;;;;;;;3.10;86.35;96117.06;4390909;32;20400;-59
2021/12/12 00:11:27;;;;;;;7.73;7.13;;;;;;;3.23;86.17;96118.69;4398993;32;20293;-59
2021/12/12 00:14:01;;;;;;;8.43;7.73;;;;;;;2.83;87.51;96123.75;4391869;32;20290;-59
2021/12/12 00:16:28;;;;;;;7.43;6.73;;;;;;;2.96;87.85;96132.19;4391505;32;20350;-59
2021/12/12 00:18:54;;;;;;;7.53;6.83;;;;;;;2.91;87.96;96139.16;4406157;32;20308;-59
2021/12/12 00:21:22;;;;;;;7.43;6.70;;;;;;;3.01;87.37;96140.19;4389790;32;20271;-59
2021/12/12 00:23:48;;;;;;;7.00;6.50;;;;;;;2.94;87.73;96146.53;4390847;32;20338;-59
2021/12/12 00:26:13;;;;;;;7.67;6.97;;;;;;;3.01;87.82;96150.66;4396023;32;20271;-65
2021/12/12 00:28:39;;;;;;;7.37;6.50;;;;;;;3.19;87.48;96152.41;4393680;32;20183;-59
2021/12/12 00:31:10;;;;;;;6.50;5.90;;;;;;;3.34;86.70;96149.34;4391585;32;20229;-59
2021/12/12 00:33:41;;;;;;;6.77;6.27;;;;;;;3.52;85.87;96148.44;4393598;32;20321;-59
2021/12/12 00:36:08;;;;;;;7.00;6.40;;;;;;;3.55;86.02;96150.59;4388825;32;20291;-58
2021/12/12 00:38:34;;;;;;;7.83;7.20;;;;;;;3.50;86.04;96150.50;4391728;32;20343;-58
2021/12/12 00:41:05;;;;;;;6.77;6.27;;;;;;;3.52;86.13;96156.31;4391778;32;20271;-58
2021/12/12 00:43:40;;;;;;;6.80;6.20;;;;;;;3.46;86.20;96158.03;4406054;32;20328;-58
2021/12/12 00:46:08;;;;;;;7.73;7.13;;;;;;;3.37;86.65;96165.41;4386831;32;20279;-58
2021/12/12 00:48:34;;;;;;;7.07;6.37;;;;;;;3.33;86.86;96152.97;4385983;32;20396;-58
2021/12/12 00:51:04;;;;;;;7.60;6.90;;;;;;;3.39;87.13;96152.87;4399199;32;20288;-58
2021/12/12 00:53:30;;;;;;;7.70;7.00;;;;;;;3.62;86.54;96161.78;4397056;32;20291;-58
2021/12/12 00:55:56;;;;;;;6.57;6.07;;;;;;;3.79;85.59;96152.97;4403514;32;20275;-58
2021/12/12 00:58:23;;;;;;;6.77;6.23;;;;;;;3.79;85.76;96152.19;4388092;32;20279;-58
2021/12/12 01:00:53;;;;;;;7.17;6.47;;;;;;;3.55;86.69;96156.62;4399808;32;20346;-58
2021/12/12 01:03:28;;;;;;;6.63;6.13;;;;;;;3.70;86.36;96158.81;4390182;32;20283;-58
2021/12/12 01:05:57;;;;;;;7.53;6.83;;;;;;;3.50;87.08;96164.41;4387688;32;20335;-58
2021/12/12 01:08:22;;;;;;;7.37;6.67;;;;;;;3.24;88.92;96168.25;4378586;32;20292;-58
2021/12/12 01:10:52;;;;;;;7.63;6.93;;;;;;;3.38;88.81;96164.38;4391747;32;20444;-58
2021/12/12 01:13:18;;;;;;;8.10;7.40;;;;;;;3.20;89.73;96174.16;4405713;32;20223;-58
2021/12/12 01:15:51;;;;;;;7.80;7.00;;;;;;;3.07;90.53;96169.94;4405151;32;20316;-59
2021/12/12 01:18:23;;;;;;;7.70;7.10;;;;;;;3.15;90.57;96166.19;4391779;32;20236;-58
2021/12/12 01:20:56;;;;;;;8.40;7.00;;;;;;;3.25;90.17;96169.84;4391574;32;20361;-58
2021/12/12 01:23:42;;;;;;;6.60;6.10;;;;;;;3.28;90.18;96174.66;4399261;32;20374;-58
2021/12/12 01:26:09;;;;;;;8.27;7.47;;;;;;;3.21;89.95;96181.00;4394791;32;20313;-58
2021/12/12 01:28:37;;;;;;;7.27;6.67;;;;;;;3.17;90.70;96183.28;4391884;32;20397;-59
2021/12/12 01:31:09;;;;;;;7.00;6.50;;;;;;;3.11;91.61;96186.81;4397205;32;20275;-58
2021/12/12 01:33:36;;;;;;;7.90;7.20;;;;;;;3.19;91.35;96186.47;4408494;32;20310;-58
2021/12/12 01:36:06;;;;;;;8.47;7.67;;;;;;;3.15;91.41;96193.19;4393945;32;20291;-58
2021/12/12 01:38:53;;;;;;;7.80;7.20;;;;;;;3.31;90.90;96203.06;4391524;32;20288;-58
2021/12/12 01:41:30;;;;;;;8.00;7.40;;;;;;;3.29;90.97;96207.72;4393950;32;20322;-58
2021/12/12 01:44:06;;;;;;;7.47;6.87;;;;;;;3.14;91.30;96202.06;4396986;32;20349;-58
2021/12/12 01:46:37;;;;;;;7.63;6.93;;;;;;;3.37;90.79;96199.50;4394369;32;20302;-58
2021/12/12 01:49:14;;;;;;;8.23;7.43;;;;;;;3.33;90.77;96206.22;4408528;32;20355;-58
2021/12/12 01:51:42;;;;;;;8.53;7.83;;;;;;;3.26;90.62;96205.53;4394647;32;20279;-58
2021/12/12 01:54:10;;;;;;;8.00;7.30;;;;;;;3.29;90.54;96210.34;4407852;32;20331;-58
2021/12/12 01:56:49;;;;;;;8.30;7.60;;;;;;;3.22;91.37;96204.38;4391912;32;20290;-58
2021/12/12 01:59:17;;;;;;;8.63;7.83;;;;;;;3.25;90.90;96209.19;4404701;32;20293;-58
2021/12/12 02:01:48;;;;;;;8.53;7.67;;;;;;;3.21;90.75;96204.59;4404832;32;20271;-58
2021/12/12 02:04:18;;;;;;;8.93;8.03;;;;;;;3.25;90.93;96201.31;4392955;32;20280;-60
2021/12/12 02:06:47;;;;;;;8.30;7.70;;;;;;;3.22;91.49;96207.00;4402222;32;20280;-60
2021/12/12 02:09:13;;;;;;;9.27;8.50;;;;;;;3.21;91.00;96201.97;4389646;32;20355;-58
2021/12/12 02:11:42;;;;;;;8.07;7.37;;;;;;;3.16;91.60;96202.66;4408054;32;20280;-58
2021/12/12 02:14:12;;;;;;;7.63;6.93;;;;;;;3.25;91.39;96208.38;4394004;32;20267;-58
2021/12/12 02:16:45;;;;;;;8.77;7.97;;;;;;;3.33;90.79;96208.03;4407816;32;20319;-58
2021/12/12 02:19:13;;;;;;;8.87;8.10;;;;;;;3.21;90.81;96209.84;4394408;32;20283;-58
2021/12/12 02:22:01;;;;;;;8.50;7.70;;;;;;;3.37;90.82;96223.09;4393423;32;20263;-58
2021/12/12 02:35:27;;;;;;;8.83;8.03;;;;;;;3.38;90.46;96213.41;4406624;32;20290;-60
2021/12/12 02:37:55;;;;;;;8.87;8.07;;;;;;;3.24;90.83;96218.06;4407400;32;20272;-60
2021/12/12 02:40:25;;;;;;;9.57;8.77;;;;;;;3.39;90.30;96215.00;4407616;32;20351;-60
2021/12/12 02:42:51;;;;;;;9.13;8.23;;;;;;;3.19;90.64;96217.12;4389084;32;20363;-61
2021/12/12 02:45:18;;;;;;;9.30;8.50;;;;;;;3.20;90.94;96210.88;4392024;32;20316;-60
2021/12/12 02:47:53;;;;;;;10.07;9.07;;;;;;;3.12;91.49;96217.22;4407318;32;20316;-61
2021/12/12 02:50:24;;;;;;;9.10;8.33;;;;;;;3.06;91.97;96218.13;4393907;32;20332;-60
2021/12/12 02:52:53;;;;;;;9.10;8.20;;;;;;;3.18;91.37;96212.91;4393253;32;20279;-60
2021/12/12 02:55:34;;;;;;;9.10;8.30;;;;;;;3.32;90.96;96223.00;4407393;32;20337;-60
2021/12/12 02:58:00;;;;;;;8.87;8.07;;;;;;;3.22;90.75;96230.59;4403497;32;20364;-60
2021/12/12 03:00:31;;;;;;;9.20;8.30;;;;;;;3.18;90.93;96226.03;4380366;32;20256;-58
2021/12/12 03:02:59;;;;;;;9.27;8.47;;;;;;;3.20;91.07;96227.41;4390103;32;20290;-58
2021/12/12 03:05:29;;;;;;;8.97;8.17;;;;;;;3.23;91.25;96226.97;4407031;32;20315;-58
2021/12/12 03:07:55;;;;;;;9.43;8.53;;;;;;;3.27;90.93;96225.50;4392700;32;20287;-58
2021/12/12 03:10:32;;;;;;;9.10;8.30;;;;;;;3.22;90.85;96235.84;4390622;32;20344;-58
2021/12/12 03:12:58;;;;;;;9.00;8.30;;;;;;;3.30;90.60;96222.44;4393185;32;20227;-58
2021/12/12 03:15:31;;;;;;;8.60;7.80;;;;;;;3.29;90.87;96226.06;4393249;32;20294;-58
2021/12/12 03:18:00;;;;;;;9.10;8.37;;;;;;;3.36;90.18;96242.47;4406872;32;20171;-58
2021/12/12 03:20:32;;;;;;;9.43;8.53;;;;;;;3.36;90.21;96239.84;4393197;32;20275;-58
2021/12/12 03:23:07;;;;;;;9.07;8.17;;;;;;;3.39;90.40;96241.22;4397230;32;20311;-58
2021/12/12 03:25:36;;;;;;;8.23;7.53;;;;;;;3.58;89.63;96232.25;4391701;32;20275;-58
2021/12/12 03:28:04;;;;;;;8.60;7.87;;;;;;;3.49;89.25;96236.25;4398530;32;20331;-58
2021/12/12 03:30:30;;;;;;;8.70;7.90;;;;;;;3.53;89.09;96237.41;4392557;32;20271;-58
2021/12/12 03:32:55;;;;;;;8.43;7.67;;;;;;;3.56;88.90;96230.88;4406230;32;20341;-58
2021/12/12 03:35:21;;;;;;;8.37;7.60;;;;;;;3.54;89.21;96232.94;4392489;32;20192;-58
2021/12/12 03:37:46;;;;;;;8.90;8.10;;;;;;;3.48;89.35;96241.72;4387851;32;20188;-58
2021/12/12 03:40:19;;;;;;;8.70;8.00;;;;;;;3.43;89.42;96245.81;4393752;32;20211;-58
2021/12/12 03:42:47;;;;;;;7.53;6.83;;;;;;;3.70;88.36;96240.16;4402454;32;20223;-59
2021/12/12 03:45:13;;;;;;;8.67;7.87;;;;;;;3.50;88.85;96237.84;4391511;32;20302;-58
2021/12/12 03:47:44;;;;;;;8.60;7.73;;;;;;;3.50;88.74;96235.22;4406868;32;20276;-58
2021/12/12 03:50:15;;;;;;;8.30;7.60;;;;;;;3.41;89.36;96233.94;4406623;32;20279;-58
2021/12/12 03:52:40;;;;;;;8.00;7.30;;;;;;;3.37;89.82;96236.22;4406693;32;20290;-58
2021/12/12 03:55:07;;;;;;;8.80;7.93;;;;;;;3.51;89.39;96238.66;4405307;32;20275;-58
2021/12/12 03:57:33;;;;;;;8.73;7.97;;;;;;;3.41;89.27;96242.63;4389854;32;20249;-58
2021/12/12 03:59:59;;;;;;;8.37;7.60;;;;;;;3.43;89.22;96237.94;4401729;32;20390;-58
2021/12/12 04:02:26;;;;;;;8.43;7.73;;;;;;;3.19;89.98;96236.28;4392484;32;20212;-58
2021/12/12 04:04:51;;;;;;;8.03;7.40;;;;;;;3.35;89.90;96235.63;4406285;32;20272;-58
2021/12/12 04:07:21;;;;;;;8.33;7.53;;;;;;;3.38;89.52;96237.00;4392176;32;20272;-58
2021/12/12 04:09:47;;;;;;;7.80;7.20;;;;;;;3.66;88.69;96239.81;4406268;32;20210;-58
2021/12/12 04:12:14;;;;;;;8.33;7.57;;;;;;;3.47;88.71;96240.12;4407798;32;20282;-58
2021/12/12 04:14:42;;;;;;;7.57;6.97;;;;;;;3.42;88.92;96236.34;4378990;32;20280;-58
2021/12/12 04:17:13;;;;;;;9.00;8.00;;;;;;;3.18;89.60;96245.16;4406234;32;20297;-58
2021/12/12 04:19:42;;;;;;;8.17;7.47;;;;;;;3.44;89.08;96242.16;4393020;32;20298;-58
2021/12/12 04:22:08;;;;;;;7.30;6.70;;;;;;;3.33;89.70;96250.78;4405576;32;20327;-58
2021/12/12 04:24:37;;;;;;;8.13;7.33;;;;;;;3.38;89.42;96255.38;4406183;32;20390;-58
2021/12/12 04:27:03;;;;;;;9.20;7.80;;;;;;;3.39;89.33;96257.78;4392143;32;20195;-58
2021/12/12 04:29:33;;;;;;;7.67;7.03;;;;;;;3.41;89.53;96255.72;4405401;32;20319;-58
2021/12/12 04:32:15;;;;;;;7.60;6.90;;;;;;;3.22;90.00;96251.56;4406125;32;20312;-58
2021/12/12 04:34:44;;;;;;;8.37;7.63;;;;;;;3.41;89.29;96265.41;4391272;32;20271;-58
2021/12/12 04:37:11;;;;;;;10.90;7.47;;;;;;;3.46;88.88;96260.31;4403974;32;20288;-58
2021/12/12 04:39:39;;;;;;;8.23;7.53;;;;;;;3.53;88.31;96270.69;4390359;32;20291;-58
2021/12/12 04:42:09;;;;;;;7.13;6.53;;;;;;;3.62;88.24;96280.63;4403714;32;20343;-58
2021/12/12 04:44:37;;;;;;;7.70;7.07;;;;;;;3.50;88.35;96290.31;4405752;32;20355;-58
2021/12/12 04:50:33;;;;;;;7.37;6.77;;;;;;;3.21;89.19;96284.06;4404016;32;20332;-58
2021/12/12 04:53:22;;;;;;;8.60;7.80;;;;;;;3.41;88.70;96291.63;4385504;32;20370;-58
2021/12/12 04:56:28;;;;;;;8.10;7.37;;;;;;;3.41;88.95;96292.44;4401240;32;20280;-58
2021/12/12 04:59:08;;;;;;;7.97;7.17;;;;;;;3.16;89.46;96299.63;4331229;32;20285;-58
2021/12/12 05:01:36;;;;;;;7.60;6.97;;;;;;;3.26;89.58;96299.13;4347442;32;20369;-58
2021/12/12 05:04:26;;;;;;;7.53;6.83;;;;;;;3.26;89.65;96289.44;4374615;32;20280;-58
2021/12/12 05:07:08;;;;;;;8.20;7.40;;;;;;;3.27;89.71;96300.72;4395488;32;20275;-58
2021/12/12 05:09:46;;;;;;;8.60;7.87;;;;;;;3.38;89.29;96305.19;4391594;32;20414;-58
2021/12/12 05:12:20;;;;;;;8.93;7.87;;;;;;;3.55;88.74;96315.84;4397080;32;20279;-58
2021/12/12 05:14:53;;;;;;;8.23;7.50;;;;;;;3.59;88.91;96314.38;4409421;32;20291;-59
2021/12/12 05:17:35;;;;;;;7.80;6.80;;;;;;;3.61;88.10;96317.56;4409977;32;20322;-58
2021/12/12 05:20:06;;;;;;;8.10;7.40;;;;;;;3.53;88.62;96315.28;4381793;32;20276;-58
2021/12/12 05:22:41;;;;;;;7.40;6.80;;;;;;;3.57;88.31;96321.66;4401060;32;20310;-58
2021/12/12 05:25:13;;;;;;;7.10;6.60;;;;;;;3.55;88.03;96326.34;4397473;32;20311;-58
2021/12/12 05:27:39;;;;;;;7.37;6.77;;;;;;;3.54;88.32;96332.59;4410442;32;20336;-58
2021/12/12 05:30:10;;;;;;;7.33;6.73;;;;;;;3.53;88.63;96337.06;4411031;32;20282;-58
2021/12/12 05:32:36;;;;;;;6.93;6.40;;;;;;;3.24;88.96;96335.25;4397957;32;20354;-58
2021/12/12 05:35:05;;;;;;;6.87;6.23;;;;;;;3.44;88.92;96339.19;4396752;32;20298;-58
2021/12/12 05:37:32;;;;;;;7.63;7.03;;;;;;;3.54;88.60;96340.47;4396696;32;20279;-58
2021/12/12 05:40:00;;;;;;;7.40;6.63;;;;;;;3.70;87.79;96342.47;4410527;32;20294;-58
2021/12/12 05:42:27;;;;;;;7.23;6.53;;;;;;;3.88;86.39;96345.03;4404409;32;20321;-58
2021/12/12 05:44:53;;;;;;;6.73;6.23;;;;;;;3.88;86.00;96337.16;4393851;32;20386;-58
2021/12/12 05:47:19;;;;;;;8.03;6.43;;;;;;;3.86;86.15;96331.31;4395916;32;20268;-58
2021/12/12 05:49:45;;;;;;;6.30;5.73;;;;;;;3.79;85.81;96326.16;4389790;32;20199;-59
2021/12/12 05:52:14;;;;;;;6.33;5.73;;;;;;;3.89;85.45;96333.50;4398211;32;20303;-58
2021/12/12 05:54:41;;;;;;;6.60;6.10;;;;;;;4.05;84.23;96330.22;4389763;32;20179;-58
2021/12/12 05:57:09;;;;;;;5.93;5.43;;;;;;;3.98;84.27;96334.75;4410470;32;20315;-58
2021/12/12 05:59:38;;;;;;;7.27;6.67;;;;;;;3.91;84.79;96344.56;4389625;32;20358;-58
2021/12/12 06:02:06;;;;;;;9.23;8.47;;;;;;;4.11;84.28;96345.06;4410926;32;23028;-58
2021/12/12 06:04:33;;;;;;;10.33;9.53;;;;;;;3.91;84.75;96344.56;4393758;32;20293;-58
2021/12/12 06:06:58;;;;;;;8.07;7.47;;;;;;;3.95;84.71;96350.94;4393506;32;20283;-58
2021/12/12 06:09:24;;;;;;;6.53;6.13;;;;;;;4.00;84.04;96358.97;4394327;32;20276;-58
2021/12/12 06:11:52;;;;;;;6.40;5.90;;;;;;;3.86;84.12;96352.31;4407575;32;20184;-58
2021/12/12 06:14:18;;;;;;;6.40;5.90;;;;;;;3.86;84.71;96354.94;4407662;32;20283;-58
2021/12/12 06:16:45;;;;;;;6.80;6.30;;;;;;;3.90;84.18;96357.94;4409273;32;20294;-58
2021/12/12 06:19:12;;;;;;;6.37;5.97;;;;;;;3.65;85.31;96360.72;4393327;32;20184;-58
2021/12/12 06:21:38;;;;;;;5.77;5.37;;;;;;;3.81;84.84;96370.56;4391961;32;20298;-58
2021/12/12 06:24:05;;;;;;;6.30;5.80;;;;;;;3.87;84.40;96366.25;4406972;32;20362;-58
2021/12/12 06:26:31;;;;;;;6.20;5.80;;;;;;;3.76;84.52;96367.81;4393672;32;20272;-58
2021/12/12 06:28:56;;;;;;;5.40;5.00;;;;;;;3.62;84.71;96371.63;4392934;32;20307;-58
2021/12/12 06:31:22;;;;;;;5.47;5.07;;;;;;;3.61;85.05;96368.22;4407843;32;20229;-58
2021/12/12 06:33:48;;;;;;;5.37;4.97;;;;;;;3.80;84.30;96363.72;4407393;32;20183;-58
2021/12/12 06:36:15;;;;;;;5.97;5.50;;;;;;;3.81;83.54;96365.31;4407685;32;20278;-58
2021/12/12 06:38:48;;;;;;;6.37;5.87;;;;;;;3.62;84.08;96371.63;4387530;32;20207;-58
2021/12/12 06:41:14;;;;;;;5.70;5.30;;;;;;;3.62;84.49;96377.69;4394079;32;20317;-58
2021/12/12 06:43:42;;;;;;;6.77;6.23;;;;;;;3.54;84.93;96385.06;4406245;32;20268;-58
2021/12/12 06:46:08;;;;;;;6.03;5.63;;;;;;;3.46;84.66;96383.56;4394645;32;20307;-58
2021/12/12 06:48:33;;;;;;;6.13;5.63;;;;;;;3.61;84.33;96380.53;4392634;32;20298;-58
2021/12/12 06:51:01;;;;;;;5.87;5.37;;;;;;;3.35;85.02;96395.59;4393720;32;20333;-58
2021/12/12 06:53:34;;;;;;;6.07;5.63;;;;;;;3.58;84.70;96386.22;4406853;32;20232;-58
2021/12/12 06:56:02;;;;;;;5.37;4.97;;;;;;;3.50;84.37;96389.16;4393700;32;20298;-58
2021/12/12 06:58:30;;;;;;;5.30;4.83;;;;;;;3.64;84.32;96385.34;4406796;32;20410;-58
2021/12/12 07:01:04;;;;;;;5.37;5.00;;;;;;;3.55;83.73;96391.91;4392811;32;20296;-58
2021/12/12 07:03:30;;;;;;;4.93;4.53;;;;;;;3.64;83.42;96391.38;4403771;32;20279;-58
2021/12/12 07:05:56;;;;;;;4.80;4.40;;;;;;;3.75;82.67;96397.69;4392551;32;20384;-58
2021/12/12 07:08:22;;;;;;;4.90;4.53;;;;;;;3.73;82.05;96397.13;4403277;32;20307;-58
2021/12/12 07:10:48;;;;;;;4.93;4.63;;;;;;;3.57;82.94;96401.16;4391043;32;20196;-58
2021/12/12 07:13:15;;;;;;;4.70;4.30;;;;;;;3.55;82.00;96407.66;4394461;32;20275;-58
2021/12/12 07:15:48;;;;;;;4.33;4.03;;;;;;;3.60;81.33;96402.53;4406824;32;20291;-58
2021/12/12 07:18:16;;;;;;;4.90;4.60;;;;;;;3.32;82.40;96411.78;4405902;32;20295;-58
2021/12/12 07:20:46;;;;;;;5.60;5.20;;;;;;;3.50;82.53;96404.91;4389520;32;20317;-58
2021/12/12 07:23:12;;;;;;;4.40;4.07;;;;;;;3.48;82.20;96409.56;4390401;32;20345;-59
2021/12/12 07:25:39;;;;;;;5.13;4.70;;;;;;;3.65;81.23;96397.44;4406715;32;20287;-58
2021/12/12 07:28:05;;;;;;;4.33;4.00;;;;;;;3.52;81.34;96402.87;4390525;32;20442;-58
2021/12/12 07:30:32;;;;;;;4.43;4.13;;;;;;;3.55;81.28;96418.13;4389696;32;20377;-58
2021/12/12 07:32:58;;;;;;;4.60;4.30;;;;;;;3.69;81.00;96423.00;4404237;32;20309;-58
2021/12/12 07:35:25;;;;;;;4.90;4.50;;;;;;;3.64;81.11;96428.13;4390191;32;20295;-58
2021/12/12 07:37:52;;;;;;;4.97;4.57;;;;;;;3.60;81.75;96437.44;4380801;32;20324;-58
2021/12/12 07:40:20;;;;;;;4.40;4.00;;;;;;;3.80;81.04;96442.44;4400168;32;20359;-58
2021/12/12 07:42:46;;;;;;;4.47;4.17;;;;;;;3.55;80.36;96444.38;4404480;32;20276;-59
2021/12/12 07:45:12;;;;;;;4.00;3.80;;;;;;;3.69;80.55;96437.94;4405486;32;20268;-58
2021/12/12 07:47:37;;;;;;;4.67;4.37;;;;;;;3.69;80.65;96444.00;4391225;32;20355;-58
2021/12/12 07:50:06;;;;;;;4.33;4.03;;;;;;;3.74;80.12;96449.34;4392234;32;20272;-58
2021/12/12 07:52:32;;;;;;;4.33;4.03;;;;;;;3.80;79.98;96442.44;4390085;32;20189;-58
2021/12/12 07:54:58;;;;;;;4.20;3.90;;;;;;;3.83;79.24;96442.00;4392299;32;20302;-58
2021/12/12 07:57:26;;;;;;;4.90;4.50;;;;;;;3.80;79.27;96440.59;4406105;32;20233;-58
2021/12/12 07:59:53;;;;;;;4.77;4.47;;;;;;;3.74;79.67;96438.88;4401433;32;20347;-58
2021/12/12 08:02:20;;;;;;;3.77;3.57;;;;;;;3.72;80.15;96446.19;4406205;32;20263;-59
2021/12/12 08:04:46;;;;;;;4.23;3.93;;;;;;;3.77;80.30;96448.13;4392353;32;20282;-58
2021/12/12 08:07:15;;;;;;;4.70;4.40;;;;;;;3.74;80.30;96454.59;4407761;32;20383;-58
2021/12/12 08:09:43;;;;;;;4.33;4.03;;;;;;;3.75;80.34;96450.16;4407671;32;20181;-59
2021/12/12 08:12:19;;;;;;;4.67;4.37;;;;;;;3.66;80.29;96446.25;4404760;32;20283;-60
2021/12/12 08:14:46;;;;;;;5.27;4.87;;;;;;;3.75;80.17;96439.66;4380262;32;20310;-58
2021/12/12 08:17:13;;;;;;;5.07;4.67;;;;;;;3.76;80.17;96431.56;4393677;32;20355;-57
2021/12/12 08:19:39;;;;;;;4.57;4.27;;;;;;;3.80;79.93;96434.56;4396170;32;20268;-58
2021/12/12 08:22:08;;;;;;;5.13;4.53;;;;;;;3.90;79.67;96436.66;4396799;32;20306;-58
2021/12/12 08:24:35;;;;;;;4.87;4.57;;;;;;;3.71;79.88;96434.09;4391951;32;20296;-58
2021/12/12 08:27:03;;;;;;;4.53;4.23;;;;;;;3.90;79.95;96440.09;4389662;32;20279;-58
2021/12/12 08:29:29;;;;;;;5.10;4.70;;;;;;;3.90;80.02;96445.34;4387384;32;20276;-58
2021/12/12 08:31:55;;;;;;;5.33;4.93;;;;;;;3.98;79.19;96459.94;4389765;32;20279;-58
2021/12/12 08:34:21;;;;;;;4.53;4.23;;;;;;;3.89;79.58;96446.34;4403101;32;20188;-58
2021/12/12 08:36:50;;;;;;;4.23;3.93;;;;;;;3.98;79.93;96437.12;4402745;32;20279;-58
2021/12/12 08:39:17;;;;;;;4.30;4.00;;;;;;;3.99;79.32;96441.34;4402025;32;20244;-58
2021/12/12 08:41:45;;;;;;;4.67;4.30;;;;;;;4.00;79.21;96437.72;4407340;32;20288;-58
2021/12/12 08:44:11;;;;;;;4.73;4.43;;;;;;;3.89;78.94;96448.19;4406290;32;20322;-58
2021/12/12 08:46:40;;;;;;;4.77;4.47;;;;;;;3.80;80.10;96443.22;4391680;32;20333;-58
2021/12/12 08:49:06;;;;;;;5.37;5.00;;;;;;;3.80;79.75;96440.59;4388491;32;20269;-58
2021/12/12 08:51:36;;;;;;;4.67;4.37;;;;;;;3.88;79.79;96442.13;4403534;32;20284;-59
2021/12/12 08:54:13;;;;;;;5.10;4.70;;;;;;;3.84;79.43;96446.22;4384762;32;20287;-59
2021/12/12 08:56:44;;;;;;;5.30;4.90;;;;;;;3.80;80.03;96442.44;4391681;32;20290;-59
2021/12/12 08:59:14;;;;;;;5.93;5.53;;;;;;;3.79;80.41;96446.06;4391075;32;20275;-58
2021/12/12 09:01:42;;;;;;;5.13;4.80;;;;;;;3.80;80.00;96442.44;4404003;32;20284;-58
2021/12/12 09:04:09;;;;;;;4.87;4.50;;;;;;;3.82;79.91;96443.00;4387062;32;20271;-58
2021/12/12 09:06:42;;;;;;;5.27;4.80;;;;;;;3.96;79.71;96438.38;4396152;32;20362;-59
2021/12/12 09:09:15;;;;;;;5.43;5.03;;;;;;;3.88;79.43;96434.25;4405426;32;20279;-58
2021/12/12 09:12:03;;;;;;;6.00;5.40;;;;;;;3.90;79.67;96437.47;4406126;32;20303;-58
2021/12/12 09:14:50;;;;;;;5.97;5.47;;;;;;;3.87;79.94;96445.78;4405198;32;20285;-58
2021/12/12 09:17:36;;;;;;;5.50;5.10;;;;;;;4.04;79.30;96448.56;4390038;32;20331;-59
2021/12/12 09:20:10;;;;;;;5.50;5.10;;;;;;;4.08;79.77;96447.91;4405460;32;20294;-57
2021/12/12 09:22:44;;;;;;;5.27;4.97;;;;;;;4.11;79.63;96454.53;4386156;32;20416;-58
2021/12/12 09:25:37;;;;;;;5.90;5.50;;;;;;;4.27;78.86;96442.56;4405593;32;20286;-58
2021/12/12 09:28:20;;;;;;;5.10;4.70;;;;;;;4.16;79.30;96449.37;4405170;32;20279;-58
2021/12/12 09:30:45;;;;;;;5.90;5.40;;;;;;;4.07;79.62;96448.94;4404144;32;20275;-58
2021/12/12 09:33:38;;;;;;;5.57;5.17;;;;;;;4.19;79.74;96453.38;4386599;32;20402;-59
2021/12/12 09:36:14;;;;;;;6.07;5.57;;;;;;;4.06;79.66;96452.56;4391085;32;20225;-58
2021/12/12 09:38:43;;;;;;;6.37;5.87;;;;;;;4.24;79.25;96456.94;4405327;32;20293;-58
2021/12/12 09:41:51;;;;;;;6.77;6.27;;;;;;;4.17;79.19;96458.06;4404923;32;20290;-58
2021/12/12 09:44:43;;;;;;;5.77;5.27;;;;;;;4.23;79.57;96455.34;4352219;32;20358;-59
2021/12/12 09:47:59;;;;;;;5.77;5.37;;;;;;;4.27;79.02;96453.88;4394248;32;20343;-58
2021/12/12 09:53:50;;;;;;;7.60;6.80;;;;;;;4.47;78.89;96456.19;4403948;32;20290;-58
2021/12/12 09:56:48;;;;;;;5.73;5.33;;;;;;;4.55;78.28;96455.88;4346056;32;20336;-58
2021/12/12 09:59:52;;;;;;;5.73;5.27;;;;;;;4.47;77.52;96454.38;4391921;32;20303;-58
2021/12/12 10:02:26;;;;;;;5.97;5.57;;;;;;;4.38;78.58;96439.97;4406671;32;20329;-59
2021/12/12 10:05:22;;;;;;;5.97;5.47;;;;;;;4.36;78.88;96435.97;4408222;32;20327;-58
2021/12/12 10:08:09;;;;;;;6.10;5.50;;;;;;;4.48;78.48;96434.97;4406851;32;20272;-58
2021/12/12 10:10:43;;;;;;;6.27;5.77;;;;;;;4.60;78.87;96431.53;4393942;32;20464;-58
2021/12/12 10:13:30;;;;;;;5.93;5.43;;;;;;;4.75;78.12;96430.06;4394619;32;20290;-58
2021/12/12 10:16:03;;;;;;;5.70;5.23;;;;;;;4.96;77.49;96431.31;4393150;32;20339;-58
2021/12/12 10:18:41;;;;;;;5.40;5.00;;;;;;;4.70;78.23;96435.22;4408058;32;20271;-59
2021/12/12 10:21:19;;;;;;;5.20;4.73;;;;;;;4.88;77.50;96429.03;4390348;32;20272;-58
2021/12/12 10:23:56;;;;;;;5.37;4.97;;;;;;;4.64;77.88;96428.22;4401144;32;20363;-60
2021/12/12 10:26:31;;;;;;;7.83;5.87;;;;;;;4.58;78.81;96417.81;4393202;32;20258;-58
2021/12/12 10:29:02;;;;;;;6.10;5.63;;;;;;;4.63;78.99;96421.38;4393049;32;20274;-59
2021/12/12 10:31:42;;;;;;;5.67;5.17;;;;;;;4.62;79.26;96411.87;4393791;32;20279;-58
2021/12/12 10:34:13;;;;;;;5.43;5.00;;;;;;;4.66;78.48;96414.88;4408012;32;20290;-59
2021/12/12 10:36:41;;;;;;;4.53;4.23;;;;;;;4.66;78.41;96412.22;4393831;32;20344;-59
2021/12/12 10:39:16;;;;;;;5.13;4.83;;;;;;;4.63;78.69;96417.94;4407350;32;20298;-59
2021/12/12 10:41:52;;;;;;;5.23;4.83;;;;;;;4.80;78.27;96410.97;4407863;32;20275;-59
2021/12/12 10:44:40;;;;;;;5.20;4.80;;;;;;;4.86;78.07;96404.00;4406360;32;20293;-58
2021/12/12 10:47:12;;;;;;;5.53;5.10;;;;;;;5.01;77.76;96406.94;4390349;32;20318;-58
2021/12/12 10:49:51;;;;;;;4.40;4.10;;;;;;;4.87;78.04;96400.34;4406751;32;20293;-58
2021/12/12 10:52:29;;;;;;;5.43;5.03;;;;;;;4.75;78.14;96395.09;4391173;32;20283;-58
2021/12/12 10:55:00;;;;;;;4.03;3.73;;;;;;;4.78;77.90;96397.28;4393535;32;20385;-59
2021/12/12 10:57:33;;;;;;;4.80;4.50;;;;;;;4.72;77.33;96399.00;4406930;32;20283;-59
2021/12/12 11:00:16;;;;;;;3.57;3.30;;;;;;;4.72;77.52;96403.44;4407717;32;20325;-59
2021/12/12 11:03:23;;;;;;;4.20;3.90;;;;;;;4.60;77.74;96394.75;4406853;32;20281;-58
2021/12/12 11:05:58;;;;;;;4.63;4.23;;;;;;;4.71;77.65;96391.31;4386613;32;20272;-58
2021/12/12 11:08:31;;;;;;;4.07;3.77;;;;;;;4.63;76.95;96395.09;4393562;32;20287;-59
2021/12/12 11:10:59;;;;;;;3.60;3.40;;;;;;;4.75;77.18;96393.28;4396875;32;20287;-58
2021/12/12 11:13:32;;;;;;;3.97;3.77;;;;;;;4.61;76.98;96398.97;4391379;32;20280;-58
2021/12/12 11:16:09;;;;;;;3.77;3.50;;;;;;;4.59;77.52;96393.94;4407303;32;20286;-58
2021/12/12 11:18:45;;;;;;;3.70;3.50;;;;;;;4.66;76.67;96399.09;4404822;32;20401;-59
2021/12/12 11:21:32;;;;;;;3.67;3.40;;;;;;;4.70;75.97;96397.63;4379702;32;20306;-58
2021/12/12 11:24:03;;;;;;;4.50;4.10;;;;;;;4.77;75.94;96390.41;4400202;32;20268;-58
2021/12/12 11:26:34;;;;;;;3.70;3.50;;;;;;;4.71;75.78;96392.12;4387827;32;20344;-58
2021/12/12 11:29:05;;;;;;;3.90;3.70;;;;;;;4.75;76.41;96388.03;4393259;32;20298;-58
2021/12/12 11:31:37;;;;;;;3.53;3.33;;;;;;;4.75;76.46;96382.75;4392647;32;20352;-59
2021/12/12 11:34:05;;;;;;;3.43;3.23;;;;;;;4.80;76.65;96369.72;4403894;32;20271;-58
2021/12/12 11:37:03;;;;;;;4.20;3.90;;;;;;;4.91;76.52;96369.94;4397172;32;20362;-59
2021/12/12 11:39:50;;;;;;;3.90;3.70;;;;;;;4.75;76.86;96369.62;4387498;32;20276;-58
2021/12/12 11:42:21;;;;;;;3.50;3.30;;;;;;;5.06;76.69;96370.25;4402464;32;20296;-58
2021/12/12 11:45:05;;;;;;;4.17;3.87;;;;;;;5.29;76.09;96370.19;4400052;32;20295;-58
2021/12/12 11:47:49;;;;;;;7.63;6.93;;;;;;;5.20;76.24;96374.19;4389830;32;20318;-58
2021/12/12 11:50:30;;;;;;;3.97;3.77;;;;;;;5.38;76.05;96374.06;4389376;32;20279;-60
2021/12/12 11:53:24;;;;;;;3.10;2.90;;;;;;;5.46;75.34;96378.94;4398291;32;20271;-58
2021/12/12 11:55:54;;;;;;;3.13;2.93;;;;;;;5.50;75.04;96374.81;4369905;32;20307;-58
2021/12/12 11:58:30;;;;;;;2.70;2.50;;;;;;;5.51;73.93;96378.22;4404898;32;20329;-58
2021/12/12 12:01:38;;;;;;;2.50;2.27;;;;;;;5.44;72.76;96377.56;4402642;32;20282;-58
2021/12/12 12:04:20;;;;;;;2.63;2.53;;;;;;;5.53;72.56;96384.88;4398696;32;20280;-59
2021/12/12 12:06:56;;;;;;;2.73;2.50;;;;;;;5.48;72.80;96378.69;4390987;32;20328;-59
2021/12/12 12:09:34;;;;;;;2.40;2.17;;;;;;;5.43;72.78;96376.75;4391353;32;20299;-58
2021/12/12 12:12:18;;;;;;;2.83;2.63;;;;;;;5.36;72.86;96376.12;4405430;32;20274;-58
2021/12/12 12:15:02;;;;;;;2.70;2.50;;;;;;;5.42;72.99;96369.09;4406330;32;20294;-58
2021/12/12 12:17:30;;;;;;;2.60;2.40;;;;;;;5.59;72.46;96366.53;4391437;32;20279;-58
2021/12/12 12:20:07;;;;;;;2.47;2.37;;;;;;;5.73;72.39;96373.09;4404286;32;20287;-58
2021/12/12 12:22:55;;;;;;;2.93;2.77;;;;;;;5.53;72.58;96369.06;4403429;32;20279;-58